createdAt,value
2023-04-29T00:01:42.192Z,21.00
2023-04-29T00:04:18.094Z,21.10
2023-04-29T00:06:53.701Z,21.10
2023-04-29T00:09:29.092Z,21.10
2023-04-29T00:12:04.260Z,21.10
2023-04-29T00:14:42.714Z,21.00
2023-04-29T00:17:20.213Z,21.00
2023-04-29T00:19:57.402Z,21.10
2023-04-29T00:22:39.504Z,21.10
2023-04-29T00:25:16.294Z,21.00
2023-04-29T00:27:52.777Z,21.00
2023-04-29T00:30:29.208Z,21.00
2023-04-29T00:33:06.501Z,21.00
2023-04-29T00:35:43.815Z,21.00
2023-04-29T00:38:19.115Z,20.80
2023-04-29T00:40:55.524Z,20.90
2023-04-29T00:43:30.783Z,21.00
2023-04-29T00:46:06.701Z,21.10
2023-04-29T00:48:45.604Z,21.00
2023-04-29T00:51:24.976Z,20.90
2023-04-29T00:54:01.867Z,21.00
2023-04-29T00:56:38.814Z,20.90
2023-04-29T00:59:17.509Z,21.00
2023-04-29T01:01:57.008Z,20.90
2023-04-29T01:04:34.274Z,21.00
2023-04-29T01:07:19.352Z,21.00
2023-04-29T01:10:07.481Z,21.00
2023-04-29T01:12:51.421Z,20.90
2023-04-29T01:15:31.028Z,20.90
2023-04-29T01:18:20.742Z,20.90
2023-04-29T01:21:17.591Z,20.90
2023-04-29T01:24:05.100Z,20.90
2023-04-29T01:26:42.575Z,20.90
2023-04-29T01:29:48.910Z,20.90
2023-04-29T01:32:38.186Z,20.90
2023-04-29T01:35:25.806Z,20.90
2023-04-29T01:38:15.679Z,20.90
2023-04-29T01:41:18.956Z,20.90
2023-04-29T01:44:01.267Z,21.00
2023-04-29T01:46:37.787Z,21.10
2023-04-29T01:49:13.745Z,20.90
2023-04-29T01:51:52.321Z,20.90
2023-04-29T01:54:28.029Z,21.00
2023-04-29T01:57:08.012Z,20.90
2023-04-29T02:00:06.546Z,21.00
2023-04-29T02:03:02.151Z,21.00
2023-04-29T02:05:49.312Z,21.00
2023-04-29T02:08:25.726Z,21.10
2023-04-29T02:11:03.795Z,21.10
2023-04-29T02:13:48.141Z,21.10
2023-04-29T02:16:24.568Z,21.10
2023-04-29T02:19:05.525Z,21.00
2023-04-29T02:21:42.517Z,21.00
2023-04-29T02:24:19.359Z,21.10
2023-04-29T02:26:55.963Z,21.10
2023-04-29T02:29:33.875Z,21.10
2023-04-29T02:32:10.438Z,21.10
2023-04-29T02:34:47.071Z,21.10
2023-04-29T02:37:23.196Z,21.00
2023-04-29T02:39:59.153Z,21.10
2023-04-29T02:42:37.106Z,21.00
2023-04-29T02:45:16.616Z,20.80
2023-04-29T02:47:53.699Z,20.80
2023-04-29T02:50:30.288Z,20.80
2023-04-29T02:53:06.150Z,20.80
2023-04-29T02:55:45.891Z,20.80
2023-04-29T02:58:21.851Z,20.80
2023-04-29T03:00:59.897Z,20.70
2023-04-29T03:03:35.379Z,20.80
2023-04-29T03:06:11.926Z,20.80
2023-04-29T03:08:48.231Z,20.70
2023-04-29T03:11:26.267Z,20.80
2023-04-29T03:14:02.978Z,20.80
2023-04-29T03:16:41.504Z,21.00
2023-04-29T03:19:17.338Z,20.90
2023-04-29T03:21:53.932Z,20.80
2023-04-29T03:24:30.486Z,20.80
2023-04-29T03:27:06.541Z,20.90
2023-04-29T03:29:42.038Z,20.90
2023-04-29T03:32:21.061Z,21.00
2023-04-29T03:34:57.655Z,21.00
2023-04-29T03:37:43.171Z,21.10
2023-04-29T03:40:32.508Z,21.00
2023-04-29T03:43:09.631Z,21.10
2023-04-29T03:45:56.511Z,21.10
2023-04-29T03:48:34.006Z,21.10
2023-04-29T03:51:10.893Z,21.10
2023-04-29T03:53:49.186Z,21.00
2023-04-29T03:56:27.161Z,21.00
2023-04-29T03:59:02.764Z,21.10
2023-04-29T04:01:38.790Z,21.20
2023-04-29T04:04:17.839Z,21.20
2023-04-29T04:06:55.954Z,21.10
2023-04-29T04:09:36.334Z,21.00
2023-04-29T04:12:13.818Z,21.00
2023-04-29T04:14:49.902Z,21.00
2023-04-29T04:17:26.241Z,21.00
2023-04-29T04:20:03.728Z,20.90
2023-04-29T04:22:39.763Z,20.90
2023-04-29T04:25:41.429Z,20.90
2023-04-29T04:28:36.956Z,20.90
2023-04-29T04:31:29.293Z,20.90
2023-04-29T04:34:05.199Z,20.70
2023-04-29T04:36:43.902Z,20.80
2023-04-29T04:39:19.260Z,20.90
2023-04-29T04:41:55.478Z,21.00
2023-04-29T04:44:35.395Z,21.10
2023-04-29T04:47:17.484Z,21.00
2023-04-29T04:50:18.525Z,21.20
2023-04-29T04:53:00.648Z,21.10
2023-04-29T04:55:56.555Z,21.10
2023-04-29T04:58:33.343Z,21.10
2023-04-29T05:01:09.212Z,21.10
2023-04-29T05:03:44.876Z,21.20
2023-04-29T05:06:20.878Z,21.10
2023-04-29T05:08:59.997Z,21.20
2023-04-29T05:11:35.128Z,21.10
2023-04-29T05:14:18.254Z,21.10
2023-04-29T05:16:55.513Z,21.00
2023-04-29T05:19:31.286Z,21.10
2023-04-29T05:22:08.049Z,21.00
2023-04-29T05:24:45.422Z,21.00
2023-04-29T05:27:20.899Z,20.80
2023-04-29T05:29:57.954Z,20.90
2023-04-29T05:32:35.864Z,20.80
2023-04-29T05:35:14.635Z,20.90
2023-04-29T05:37:51.069Z,20.90
2023-04-29T05:40:48.029Z,20.80
2023-04-29T05:43:42.313Z,20.90
2023-04-29T05:46:22.156Z,20.80
2023-04-29T05:48:57.802Z,20.60
2023-04-29T05:51:36.736Z,20.50
2023-04-29T05:54:16.340Z,20.60
2023-04-29T05:57:08.476Z,20.80
2023-04-29T05:59:44.376Z,20.80
2023-04-29T06:02:23.406Z,20.80
2023-04-29T06:04:59.090Z,20.80
2023-04-29T06:07:52.514Z,20.60
2023-04-29T06:10:55.041Z,20.70
2023-04-29T06:13:36.684Z,20.70
2023-04-29T06:16:14.455Z,20.70
2023-04-29T06:18:50.452Z,20.80
2023-04-29T06:21:26.425Z,20.70
2023-04-29T06:24:03.586Z,20.70
2023-04-29T06:26:39.470Z,20.60
2023-04-29T06:29:17.645Z,20.50
2023-04-29T06:31:55.938Z,20.50
2023-04-29T06:34:32.347Z,20.60
2023-04-29T06:37:37.950Z,20.70
2023-04-29T06:40:31.660Z,20.70
2023-04-29T06:43:34.593Z,20.80
2023-04-29T06:46:26.693Z,20.80
2023-04-29T06:49:11.041Z,20.80
2023-04-29T06:51:47.074Z,20.70
2023-04-29T06:54:23.131Z,20.60
2023-04-29T06:56:59.872Z,20.70
2023-04-29T06:59:35.342Z,20.80
2023-04-29T07:02:14.542Z,20.60
2023-04-29T07:04:51.619Z,20.70
2023-04-29T07:07:29.800Z,20.60
2023-04-29T07:10:05.275Z,20.50
2023-04-29T07:12:41.157Z,20.50
2023-04-29T07:15:23.144Z,20.50
2023-04-29T07:18:07.229Z,20.50
2023-04-29T07:20:45.261Z,20.60
2023-04-29T07:23:21.286Z,20.70
2023-04-29T07:26:00.966Z,20.60
2023-04-29T07:28:36.475Z,20.50
2023-04-29T07:31:11.886Z,20.60
2023-04-29T07:33:51.107Z,20.50
2023-04-29T07:36:27.129Z,20.40
2023-04-29T07:39:02.684Z,20.40
2023-04-29T07:41:40.009Z,20.40
2023-04-29T07:44:15.975Z,20.50
2023-04-29T07:46:52.708Z,20.40
2023-04-29T07:49:30.778Z,20.40
2023-04-29T07:52:06.072Z,20.40
2023-04-29T07:54:41.908Z,20.40
2023-04-29T07:57:17.963Z,20.30
2023-04-29T07:59:58.028Z,20.30
2023-04-29T08:02:36.755Z,20.20
2023-04-29T08:05:16.201Z,20.20
2023-04-29T08:07:55.141Z,20.30
2023-04-29T08:10:33.024Z,20.30
2023-04-29T08:13:08.319Z,20.20
2023-04-29T08:15:44.137Z,20.30
2023-04-29T08:18:20.144Z,20.30
2023-04-29T08:20:58.180Z,20.30
2023-04-29T08:23:34.145Z,20.30
2023-04-29T08:26:14.602Z,20.20
2023-04-29T08:28:55.150Z,20.30
2023-04-29T08:31:38.128Z,20.20
2023-04-29T08:34:13.761Z,20.20
2023-04-29T08:36:52.231Z,20.30
2023-04-29T08:39:28.041Z,20.20
2023-04-29T08:42:04.502Z,20.10
2023-04-29T08:44:41.534Z,20.10
2023-04-29T08:47:20.585Z,20.10
2023-04-29T08:49:56.655Z,20.20
2023-04-29T08:52:47.645Z,20.20
2023-04-29T08:55:38.803Z,20.20
2023-04-29T08:58:28.676Z,20.20
2023-04-29T09:02:04.060Z,20.30
2023-04-29T09:04:52.035Z,20.30
2023-04-29T09:07:35.964Z,20.30
2023-04-29T09:10:14.742Z,20.30
2023-04-29T09:13:33.319Z,20.40
2023-04-29T09:16:09.871Z,20.30
2023-04-29T09:19:14.376Z,20.20
2023-04-29T09:22:01.926Z,20.20
2023-04-29T09:25:55.631Z,20.20
2023-04-29T09:28:31.386Z,20.20
2023-04-29T09:31:08.388Z,20.30
2023-04-29T09:34:00.618Z,20.30
2023-04-29T09:36:48.916Z,20.20
2023-04-29T09:39:25.860Z,20.30
2023-04-29T09:42:07.621Z,20.40
2023-04-29T09:45:00.491Z,20.40
2023-04-29T09:51:14.919Z,20.40
2023-04-29T09:54:23.896Z,20.40
2023-04-29T10:01:06.025Z,20.30
2023-04-29T10:03:50.835Z,20.30
2023-04-29T10:06:35.333Z,20.30
2023-04-29T10:09:29.797Z,20.40
2023-04-29T10:13:08.964Z,20.20
2023-04-29T10:15:57.298Z,20.20
2023-04-29T10:19:15.098Z,20.20
2023-04-29T10:22:19.799Z,20.30
2023-04-29T10:25:00.883Z,20.20
2023-04-29T10:27:39.568Z,20.20
2023-04-29T10:30:18.823Z,20.20
2023-04-29T10:32:55.369Z,20.20
2023-04-29T10:35:31.478Z,20.20
2023-04-29T10:38:20.532Z,20.20
2023-04-29T10:41:09.076Z,20.20
2023-04-29T10:43:46.666Z,20.20
2023-04-29T10:46:28.676Z,20.10
2023-04-29T10:49:08.115Z,20.20
2023-04-29T10:51:46.332Z,20.10
2023-04-29T10:54:27.631Z,20.20
2023-04-29T10:57:04.479Z,20.10
2023-04-29T10:59:53.018Z,20.10
2023-04-29T11:02:28.977Z,20.00
2023-04-29T11:05:16.143Z,20.00
2023-04-29T11:07:52.794Z,20.00
2023-04-29T11:10:42.308Z,20.00
2023-04-29T11:13:36.108Z,20.00
2023-04-29T11:16:15.640Z,20.00
2023-04-29T11:19:09.930Z,19.90
2023-04-29T11:21:45.609Z,19.90
2023-04-29T11:24:21.693Z,19.90
2023-04-29T11:26:58.469Z,19.90
2023-04-29T11:29:38.622Z,19.90
2023-04-29T11:32:36.187Z,19.80
2023-04-29T11:35:21.133Z,19.80
2023-04-29T11:38:01.658Z,19.90
2023-04-29T11:40:39.380Z,19.80
2023-04-29T11:43:24.584Z,19.80
2023-04-29T11:46:00.256Z,19.70
2023-04-29T11:48:38.685Z,19.70
2023-04-29T11:51:15.185Z,19.70
2023-04-29T11:53:54.714Z,19.70
2023-04-29T11:56:31.181Z,19.70
2023-04-29T11:59:09.887Z,19.60
2023-04-29T12:01:46.761Z,19.70
2023-04-29T12:04:24.855Z,19.70
2023-04-29T12:07:13.738Z,19.70
2023-04-29T12:09:50.631Z,19.50
2023-04-29T12:12:27.410Z,19.60
2023-04-29T12:15:04.822Z,19.50
2023-04-29T12:17:40.532Z,19.50
2023-04-29T12:20:22.040Z,19.50
2023-04-29T12:22:57.925Z,19.50
2023-04-29T12:25:36.951Z,19.40
2023-04-29T12:28:17.949Z,19.40
2023-04-29T12:30:55.720Z,19.40
2023-04-29T12:33:32.475Z,19.30
2023-04-29T12:36:20.379Z,19.40
2023-04-29T12:38:57.631Z,19.40
2023-04-29T12:41:51.184Z,19.60
2023-04-29T12:44:27.186Z,19.60
2023-04-29T12:47:15.302Z,19.50
2023-04-29T12:49:52.245Z,19.40
2023-04-29T12:52:36.434Z,19.40
2023-04-29T12:55:12.311Z,19.30
2023-04-29T12:57:47.962Z,19.20
2023-04-29T13:00:25.195Z,19.20
2023-04-29T13:03:01.898Z,19.20
2023-04-29T13:05:39.413Z,19.30
2023-04-29T13:08:16.761Z,19.20
2023-04-29T13:10:52.958Z,19.30
2023-04-29T13:13:29.385Z,19.10
2023-04-29T13:16:06.164Z,19.00
2023-04-29T13:18:47.919Z,18.90
2023-04-29T13:21:34.508Z,19.00
2023-04-29T13:24:12.823Z,18.90
2023-04-29T13:26:49.116Z,18.80
2023-04-29T13:29:26.419Z,18.90
2023-04-29T13:32:04.340Z,18.90
2023-04-29T13:34:43.200Z,18.90
2023-04-29T13:37:19.020Z,18.80
2023-04-29T13:39:57.639Z,18.70
2023-04-29T13:42:46.025Z,18.70
2023-04-29T13:45:28.584Z,18.70
2023-04-29T13:48:12.663Z,18.60
2023-04-29T13:54:29.227Z,18.40
